sensor_id;sensor_type;location;lat;lon;timestamp;P1;durP1;ratioP1;P2;durP2;ratioP2
4921;SDS011;16625;53.624;10.106;2024-01-06T00:00:25;6.60;;;4.97;;
4921;SDS011;16625;53.624;10.106;2024-01-06T00:02:52;9.60;;;6.30;;
4921;SDS011;16625;53.624;10.106;2024-01-06T00:05:19;5.83;;;4.83;;
4921;SDS011;16625;53.624;10.106;2024-01-06T00:07:45;11.23;;;6.43;;
4921;SDS011;16625;53.624;10.106;2024-01-06T00:10:12;7.93;;;5.00;;
4921;SDS011;16625;53.624;10.106;2024-01-06T00:12:39;7.40;;;3.93;;
4921;SDS011;16625;53.624;10.106;2024-01-06T00:15:08;4.40;;;3.57;;
4921;SDS011;16625;53.624;10.106;2024-01-06T00:17:35;6.07;;;4.47;;
4921;SDS011;16625;53.624;10.106;2024-01-06T00:20:03;7.60;;;4.50;;
4921;SDS011;16625;53.624;10.106;2024-01-06T00:22:30;7.73;;;4.90;;
4921;SDS011;16625;53.624;10.106;2024-01-06T00:24:57;6.40;;;4.57;;
4921;SDS011;16625;53.624;10.106;2024-01-06T00:27:24;5.50;;;4.93;;
4921;SDS011;16625;53.624;10.106;2024-01-06T00:29:51;9.73;;;5.50;;
4921;SDS011;16625;53.624;10.106;2024-01-06T00:32:20;7.67;;;5.40;;
4921;SDS011;16625;53.624;10.106;2024-01-06T00:34:47;8.40;;;5.53;;
4921;SDS011;16625;53.624;10.106;2024-01-06T00:37:14;6.80;;;4.40;;
4921;SDS011;16625;53.624;10.106;2024-01-06T00:39:41;13.30;;;5.00;;
4921;SDS011;16625;53.624;10.106;2024-01-06T00:42:07;11.13;;;5.60;;
4921;SDS011;16625;53.624;10.106;2024-01-06T00:44:35;9.17;;;5.27;;
4921;SDS011;16625;53.624;10.106;2024-01-06T00:47:03;6.27;;;5.10;;
4921;SDS011;16625;53.624;10.106;2024-01-06T00:49:31;6.93;;;5.13;;
4921;SDS011;16625;53.624;10.106;2024-01-06T00:51:58;16.20;;;5.03;;
4921;SDS011;16625;53.624;10.106;2024-01-06T00:54:25;12.10;;;5.57;;
4921;SDS011;16625;53.624;10.106;2024-01-06T00:56:52;6.33;;;4.23;;
4921;SDS011;16625;53.624;10.106;2024-01-06T00:59:18;8.17;;;5.30;;
4921;SDS011;16625;53.624;10.106;2024-01-06T01:01:45;8.03;;;5.50;;
4921;SDS011;16625;53.624;10.106;2024-01-06T01:04:13;12.57;;;5.90;;
4921;SDS011;16625;53.624;10.106;2024-01-06T01:06:41;7.03;;;4.90;;
4921;SDS011;16625;53.624;10.106;2024-01-06T01:09:08;8.47;;;4.97;;
4921;SDS011;16625;53.624;10.106;2024-01-06T01:11:35;7.37;;;5.20;;
4921;SDS011;16625;53.624;10.106;2024-01-06T01:14:02;8.00;;;5.00;;
4921;SDS011;16625;53.624;10.106;2024-01-06T01:16:29;6.27;;;4.57;;
4921;SDS011;16625;53.624;10.106;2024-01-06T01:18:57;7.73;;;5.10;;
4921;SDS011;16625;53.624;10.106;2024-01-06T01:21:24;6.10;;;4.50;;
4921;SDS011;16625;53.624;10.106;2024-01-06T01:23:52;5.30;;;4.03;;
4921;SDS011;16625;53.624;10.106;2024-01-06T01:26:19;8.03;;;5.20;;
4921;SDS011;16625;53.624;10.106;2024-01-06T01:28:46;8.07;;;4.70;;
4921;SDS011;16625;53.624;10.106;2024-01-06T01:31:13;9.30;;;5.70;;
4921;SDS011;16625;53.624;10.106;2024-01-06T01:33:40;8.13;;;5.17;;
4921;SDS011;16625;53.624;10.106;2024-01-06T01:36:06;6.17;;;4.90;;
4921;SDS011;16625;53.624;10.106;2024-01-06T01:38:33;7.03;;;4.00;;
4921;SDS011;16625;53.624;10.106;2024-01-06T01:41:02;10.77;;;6.00;;
4921;SDS011;16625;53.624;10.106;2024-01-06T01:43:29;7.17;;;5.60;;
4921;SDS011;16625;53.624;10.106;2024-01-06T01:45:56;5.20;;;4.20;;
4921;SDS011;16625;53.624;10.106;2024-01-06T01:48:24;8.27;;;5.50;;
4921;SDS011;16625;53.624;10.106;2024-01-06T01:50:51;9.17;;;5.30;;
4921;SDS011;16625;53.624;10.106;2024-01-06T01:53:20;8.97;;;5.00;;
4921;SDS011;16625;53.624;10.106;2024-01-06T01:55:49;7.20;;;5.17;;
4921;SDS011;16625;53.624;10.106;2024-01-06T01:58:18;7.83;;;4.97;;
4921;SDS011;16625;53.624;10.106;2024-01-06T02:00:45;6.17;;;5.30;;
4921;SDS011;16625;53.624;10.106;2024-01-06T02:03:13;8.13;;;5.50;;
4921;SDS011;16625;53.624;10.106;2024-01-06T02:05:40;5.80;;;4.30;;
4921;SDS011;16625;53.624;10.106;2024-01-06T02:08:07;6.97;;;5.23;;
4921;SDS011;16625;53.624;10.106;2024-01-06T02:10:35;7.33;;;5.63;;
4921;SDS011;16625;53.624;10.106;2024-01-06T02:13:09;8.73;;;5.57;;
4921;SDS011;16625;53.624;10.106;2024-01-06T02:15:38;6.00;;;4.47;;
4921;SDS011;16625;53.624;10.106;2024-01-06T02:18:05;4.70;;;4.00;;
4921;SDS011;16625;53.624;10.106;2024-01-06T02:20:32;7.60;;;5.63;;
4921;SDS011;16625;53.624;10.106;2024-01-06T02:23:00;10.50;;;5.53;;
4921;SDS011;16625;53.624;10.106;2024-01-06T02:25:27;7.50;;;4.37;;
4921;SDS011;16625;53.624;10.106;2024-01-06T02:27:54;11.23;;;6.73;;
4921;SDS011;16625;53.624;10.106;2024-01-06T02:30:21;10.47;;;6.10;;
4921;SDS011;16625;53.624;10.106;2024-01-06T02:32:48;10.13;;;6.73;;
4921;SDS011;16625;53.624;10.106;2024-01-06T02:35:15;10.00;;;6.17;;
4921;SDS011;16625;53.624;10.106;2024-01-06T02:37:42;8.50;;;6.03;;
4921;SDS011;16625;53.624;10.106;2024-01-06T02:40:11;6.83;;;5.00;;
4921;SDS011;16625;53.624;10.106;2024-01-06T02:42:39;10.63;;;6.43;;
4921;SDS011;16625;53.624;10.106;2024-01-06T02:45:07;7.10;;;5.17;;
4921;SDS011;16625;53.624;10.106;2024-01-06T02:47:34;8.97;;;7.40;;
4921;SDS011;16625;53.624;10.106;2024-01-06T02:50:01;11.10;;;7.13;;
4921;SDS011;16625;53.624;10.106;2024-01-06T02:52:28;9.93;;;6.10;;
4921;SDS011;16625;53.624;10.106;2024-01-06T02:54:55;8.37;;;6.10;;
4921;SDS011;16625;53.624;10.106;2024-01-06T02:57:23;7.13;;;4.73;;
4921;SDS011;16625;53.624;10.106;2024-01-06T02:59:50;8.77;;;6.33;;
4921;SDS011;16625;53.624;10.106;2024-01-06T03:02:17;7.70;;;5.83;;
4921;SDS011;16625;53.624;10.106;2024-01-06T03:04:44;8.50;;;6.80;;
4921;SDS011;16625;53.624;10.106;2024-01-06T03:07:11;6.57;;;4.90;;
4921;SDS011;16625;53.624;10.106;2024-01-06T03:09:38;10.07;;;6.63;;
4921;SDS011;16625;53.624;10.106;2024-01-06T03:12:05;9.80;;;7.47;;
4921;SDS011;16625;53.624;10.106;2024-01-06T03:14:34;10.97;;;7.30;;
4921;SDS011;16625;53.624;10.106;2024-01-06T03:17:01;15.20;;;5.80;;
4921;SDS011;16625;53.624;10.106;2024-01-06T03:19:28;9.67;;;5.90;;
4921;SDS011;16625;53.624;10.106;2024-01-06T03:21:54;9.10;;;6.17;;
4921;SDS011;16625;53.624;10.106;2024-01-06T03:24:23;9.83;;;6.90;;
4921;SDS011;16625;53.624;10.106;2024-01-06T03:26:52;8.97;;;5.87;;
4921;SDS011;16625;53.624;10.106;2024-01-06T03:29:18;8.00;;;5.70;;
4921;SDS011;16625;53.624;10.106;2024-01-06T03:31:47;10.13;;;5.97;;
4921;SDS011;16625;53.624;10.106;2024-01-06T03:34:14;10.00;;;6.27;;
4921;SDS011;16625;53.624;10.106;2024-01-06T03:36:41;8.90;;;6.30;;
4921;SDS011;16625;53.624;10.106;2024-01-06T03:39:07;9.33;;;6.57;;
4921;SDS011;16625;53.624;10.106;2024-01-06T03:41:35;10.97;;;6.67;;
4921;SDS011;16625;53.624;10.106;2024-01-06T03:44:02;8.53;;;5.13;;
4921;SDS011;16625;53.624;10.106;2024-01-06T03:46:30;10.20;;;6.10;;
4921;SDS011;16625;53.624;10.106;2024-01-06T03:48:58;10.90;;;6.57;;
4921;SDS011;16625;53.624;10.106;2024-01-06T03:51:25;4.60;;;4.17;;
4921;SDS011;16625;53.624;10.106;2024-01-06T03:53:52;10.40;;;6.50;;
4921;SDS011;16625;53.624;10.106;2024-01-06T03:56:18;11.73;;;7.03;;
4921;SDS011;16625;53.624;10.106;2024-01-06T03:58:45;12.43;;;7.27;;
4921;SDS011;16625;53.624;10.106;2024-01-06T04:01:13;12.53;;;6.90;;
4921;SDS011;16625;53.624;10.106;2024-01-06T04:03:40;8.20;;;6.60;;
4921;SDS011;16625;53.624;10.106;2024-01-06T04:06:08;13.30;;;7.60;;
4921;SDS011;16625;53.624;10.106;2024-01-06T04:08:36;6.70;;;5.33;;
4921;SDS011;16625;53.624;10.106;2024-01-06T04:11:03;11.50;;;6.60;;
4921;SDS011;16625;53.624;10.106;2024-01-06T04:13:29;8.67;;;6.60;;
4921;SDS011;16625;53.624;10.106;2024-01-06T04:15:56;9.70;;;5.60;;
4921;SDS011;16625;53.624;10.106;2024-01-06T04:18:23;9.27;;;6.90;;
4921;SDS011;16625;53.624;10.106;2024-01-06T04:20:50;9.40;;;6.53;;
4921;SDS011;16625;53.624;10.106;2024-01-06T04:23:18;8.70;;;6.17;;
4921;SDS011;16625;53.624;10.106;2024-01-06T04:25:45;9.10;;;6.60;;
4921;SDS011;16625;53.624;10.106;2024-01-06T04:28:12;12.50;;;6.93;;
4921;SDS011;16625;53.624;10.106;2024-01-06T04:30:38;8.47;;;4.83;;
4921;SDS011;16625;53.624;10.106;2024-01-06T04:33:05;12.47;;;8.50;;
4921;SDS011;16625;53.624;10.106;2024-01-06T04:35:32;12.57;;;7.47;;
4921;SDS011;16625;53.624;10.106;2024-01-06T04:37:59;8.90;;;5.77;;
4921;SDS011;16625;53.624;10.106;2024-01-06T04:40:27;12.90;;;6.70;;
4921;SDS011;16625;53.624;10.106;2024-01-06T04:42:54;13.20;;;6.73;;
4921;SDS011;16625;53.624;10.106;2024-01-06T04:45:21;10.17;;;6.20;;
4921;SDS011;16625;53.624;10.106;2024-01-06T04:47:49;10.50;;;6.10;;
4921;SDS011;16625;53.624;10.106;2024-01-06T04:50:15;12.23;;;5.67;;
4921;SDS011;16625;53.624;10.106;2024-01-06T04:52:42;12.20;;;7.30;;
4921;SDS011;16625;53.624;10.106;2024-01-06T04:55:10;10.17;;;6.80;;
4921;SDS011;16625;53.624;10.106;2024-01-06T04:57:38;10.13;;;6.60;;
4921;SDS011;16625;53.624;10.106;2024-01-06T05:00:05;10.30;;;7.00;;
4921;SDS011;16625;53.624;10.106;2024-01-06T05:02:33;15.10;;;8.93;;
4921;SDS011;16625;53.624;10.106;2024-01-06T05:05:00;8.73;;;6.30;;
4921;SDS011;16625;53.624;10.106;2024-01-06T05:07:27;13.33;;;7.10;;
4921;SDS011;16625;53.624;10.106;2024-01-06T05:09:54;10.87;;;6.57;;
4921;SDS011;16625;53.624;10.106;2024-01-06T05:12:22;13.83;;;7.60;;
4921;SDS011;16625;53.624;10.106;2024-01-06T05:14:50;14.77;;;7.30;;
4921;SDS011;16625;53.624;10.106;2024-01-06T05:17:17;14.97;;;7.50;;
4921;SDS011;16625;53.624;10.106;2024-01-06T05:19:44;11.33;;;7.07;;
4921;SDS011;16625;53.624;10.106;2024-01-06T05:22:11;8.13;;;5.73;;
4921;SDS011;16625;53.624;10.106;2024-01-06T05:24:38;11.70;;;7.03;;
4921;SDS011;16625;53.624;10.106;2024-01-06T05:27:05;15.63;;;8.50;;
4921;SDS011;16625;53.624;10.106;2024-01-06T05:29:32;9.80;;;6.40;;
4921;SDS011;16625;53.624;10.106;2024-01-06T05:32:00;9.07;;;6.60;;
4921;SDS011;16625;53.624;10.106;2024-01-06T05:34:27;10.30;;;6.80;;
4921;SDS011;16625;53.624;10.106;2024-01-06T05:36:54;10.50;;;6.90;;
4921;SDS011;16625;53.624;10.106;2024-01-06T05:39:21;12.37;;;8.47;;
4921;SDS011;16625;53.624;10.106;2024-01-06T05:41:48;11.40;;;7.10;;
4921;SDS011;16625;53.624;10.106;2024-01-06T05:44:15;11.03;;;7.80;;
4921;SDS011;16625;53.624;10.106;2024-01-06T05:46:42;11.63;;;6.43;;
4921;SDS011;16625;53.624;10.106;2024-01-06T05:49:10;12.47;;;8.13;;
4921;SDS011;16625;53.624;10.106;2024-01-06T05:51:37;10.63;;;7.30;;
4921;SDS011;16625;53.624;10.106;2024-01-06T05:54:10;13.53;;;7.33;;
4921;SDS011;16625;53.624;10.106;2024-01-06T05:56:37;9.63;;;6.40;;
4921;SDS011;16625;53.624;10.106;2024-01-06T05:59:04;12.30;;;7.73;;
4921;SDS011;16625;53.624;10.106;2024-01-06T06:01:31;9.80;;;6.40;;
4921;SDS011;16625;53.624;10.106;2024-01-06T06:03:57;12.67;;;7.93;;
4921;SDS011;16625;53.624;10.106;2024-01-06T06:06:26;8.70;;;6.40;;
4921;SDS011;16625;53.624;10.106;2024-01-06T06:08:53;11.30;;;6.67;;
4921;SDS011;16625;53.624;10.106;2024-01-06T06:11:19;8.57;;;6.33;;
4921;SDS011;16625;53.624;10.106;2024-01-06T06:13:46;12.40;;;6.60;;
4921;SDS011;16625;53.624;10.106;2024-01-06T06:16:13;11.57;;;7.23;;
4921;SDS011;16625;53.624;10.106;2024-01-06T06:18:40;10.60;;;7.83;;
4921;SDS011;16625;53.624;10.106;2024-01-06T06:21:07;11.90;;;7.70;;
4921;SDS011;16625;53.624;10.106;2024-01-06T06:23:36;8.50;;;6.40;;
4921;SDS011;16625;53.624;10.106;2024-01-06T06:26:04;15.33;;;8.63;;
4921;SDS011;16625;53.624;10.106;2024-01-06T06:28:31;11.63;;;6.90;;
4921;SDS011;16625;53.624;10.106;2024-01-06T06:30:59;14.10;;;8.17;;
4921;SDS011;16625;53.624;10.106;2024-01-06T06:33:26;13.07;;;7.20;;
4921;SDS011;16625;53.624;10.106;2024-01-06T06:35:53;11.57;;;7.23;;
4921;SDS011;16625;53.624;10.106;2024-01-06T06:38:20;10.90;;;5.50;;
4921;SDS011;16625;53.624;10.106;2024-01-06T06:40:48;8.37;;;4.87;;
4921;SDS011;16625;53.624;10.106;2024-01-06T06:43:15;15.33;;;8.40;;
4921;SDS011;16625;53.624;10.106;2024-01-06T06:45:42;12.67;;;7.43;;
4921;SDS011;16625;53.624;10.106;2024-01-06T06:48:09;12.70;;;8.23;;
4921;SDS011;16625;53.624;10.106;2024-01-06T06:50:36;11.90;;;6.83;;
4921;SDS011;16625;53.624;10.106;2024-01-06T06:53:03;11.03;;;7.43;;
4921;SDS011;16625;53.624;10.106;2024-01-06T06:55:30;13.10;;;8.27;;
4921;SDS011;16625;53.624;10.106;2024-01-06T06:57:58;15.63;;;8.23;;
4921;SDS011;16625;53.624;10.106;2024-01-06T07:00:25;8.73;;;6.80;;
4921;SDS011;16625;53.624;10.106;2024-01-06T07:02:52;15.03;;;9.17;;
4921;SDS011;16625;53.624;10.106;2024-01-06T07:05:19;8.63;;;6.50;;
4921;SDS011;16625;53.624;10.106;2024-01-06T07:07:46;25.67;;;6.47;;
4921;SDS011;16625;53.624;10.106;2024-01-06T07:10:13;12.97;;;8.53;;
4921;SDS011;16625;53.624;10.106;2024-01-06T07:12:40;17.37;;;8.60;;
4921;SDS011;16625;53.624;10.106;2024-01-06T07:15:08;15.53;;;8.50;;
4921;SDS011;16625;53.624;10.106;2024-01-06T07:17:36;13.23;;;6.87;;
4921;SDS011;16625;53.624;10.106;2024-01-06T07:20:03;9.30;;;6.67;;
4921;SDS011;16625;53.624;10.106;2024-01-06T07:22:32;15.13;;;9.40;;
4921;SDS011;16625;53.624;10.106;2024-01-06T07:24:59;17.97;;;8.07;;
4921;SDS011;16625;53.624;10.106;2024-01-06T07:27:26;9.20;;;6.47;;
4921;SDS011;16625;53.624;10.106;2024-01-06T07:29:53;12.60;;;7.70;;
4921;SDS011;16625;53.624;10.106;2024-01-06T07:32:22;13.90;;;7.07;;
4921;SDS011;16625;53.624;10.106;2024-01-06T07:34:49;9.87;;;6.37;;
4921;SDS011;16625;53.624;10.106;2024-01-06T07:37:16;11.20;;;6.80;;
4921;SDS011;16625;53.624;10.106;2024-01-06T07:39:43;18.13;;;8.27;;
4921;SDS011;16625;53.624;10.106;2024-01-06T07:42:10;14.90;;;7.63;;
4921;SDS011;16625;53.624;10.106;2024-01-06T07:44:37;13.27;;;9.27;;
4921;SDS011;16625;53.624;10.106;2024-01-06T07:47:04;11.50;;;7.27;;
4921;SDS011;16625;53.624;10.106;2024-01-06T07:49:32;13.17;;;7.20;;
4921;SDS011;16625;53.624;10.106;2024-01-06T07:51:59;15.17;;;7.80;;
4921;SDS011;16625;53.624;10.106;2024-01-06T07:54:27;13.20;;;7.20;;
4921;SDS011;16625;53.624;10.106;2024-01-06T07:56:54;11.53;;;8.03;;
4921;SDS011;16625;53.624;10.106;2024-01-06T07:59:21;15.73;;;8.60;;
4921;SDS011;16625;53.624;10.106;2024-01-06T08:01:48;12.93;;;6.57;;
4921;SDS011;16625;53.624;10.106;2024-01-06T08:04:15;11.67;;;8.03;;
4921;SDS011;16625;53.624;10.106;2024-01-06T08:06:44;11.47;;;7.67;;
4921;SDS011;16625;53.624;10.106;2024-01-06T08:09:11;9.53;;;6.80;;
4921;SDS011;16625;53.624;10.106;2024-01-06T08:11:37;8.27;;;5.53;;
4921;SDS011;16625;53.624;10.106;2024-01-06T08:14:05;12.20;;;8.20;;
4921;SDS011;16625;53.624;10.106;2024-01-06T08:16:32;9.23;;;6.73;;
4921;SDS011;16625;53.624;10.106;2024-01-06T08:18:58;10.43;;;8.33;;
4921;SDS011;16625;53.624;10.106;2024-01-06T08:21:26;6.27;;;3.80;;
4921;SDS011;16625;53.624;10.106;2024-01-06T08:23:54;8.20;;;5.80;;
4921;SDS011;16625;53.624;10.106;2024-01-06T08:26:21;10.30;;;5.97;;
4921;SDS011;16625;53.624;10.106;2024-01-06T08:28:48;9.50;;;6.30;;
4921;SDS011;16625;53.624;10.106;2024-01-06T08:31:15;12.03;;;7.10;;
4921;SDS011;16625;53.624;10.106;2024-01-06T08:33:42;11.37;;;7.50;;
4921;SDS011;16625;53.624;10.106;2024-01-06T08:36:09;8.50;;;5.03;;
4921;SDS011;16625;53.624;10.106;2024-01-06T08:38:36;14.13;;;8.40;;
4921;SDS011;16625;53.624;10.106;2024-01-06T08:41:05;13.10;;;7.50;;
4921;SDS011;16625;53.624;10.106;2024-01-06T08:43:32;6.77;;;5.60;;
4921;SDS011;16625;53.624;10.106;2024-01-06T08:45:59;12.50;;;8.50;;
4921;SDS011;16625;53.624;10.106;2024-01-06T08:48:27;15.80;;;7.60;;
4921;SDS011;16625;53.624;10.106;2024-01-06T08:50:54;11.40;;;6.60;;
4921;SDS011;16625;53.624;10.106;2024-01-06T08:53:21;16.00;;;8.00;;
4921;SDS011;16625;53.624;10.106;2024-01-06T08:55:47;11.77;;;7.80;;
4921;SDS011;16625;53.624;10.106;2024-01-06T08:58:16;12.73;;;6.30;;
4921;SDS011;16625;53.624;10.106;2024-01-06T09:00:43;14.50;;;7.23;;
4921;SDS011;16625;53.624;10.106;2024-01-06T09:03:10;12.73;;;7.73;;
4921;SDS011;16625;53.624;10.106;2024-01-06T09:05:37;16.13;;;8.10;;
4921;SDS011;16625;53.624;10.106;2024-01-06T09:08:05;12.40;;;6.63;;
4921;SDS011;16625;53.624;10.106;2024-01-06T09:10:32;11.93;;;6.73;;
4921;SDS011;16625;53.624;10.106;2024-01-06T09:12:59;11.90;;;6.93;;
4921;SDS011;16625;53.624;10.106;2024-01-06T09:15:28;11.43;;;7.20;;
4921;SDS011;16625;53.624;10.106;2024-01-06T09:17:55;13.40;;;6.63;;
4921;SDS011;16625;53.624;10.106;2024-01-06T09:20:22;12.87;;;6.90;;
4921;SDS011;16625;53.624;10.106;2024-01-06T09:22:48;16.93;;;8.40;;
4921;SDS011;16625;53.624;10.106;2024-01-06T09:25:16;11.27;;;6.80;;
4921;SDS011;16625;53.624;10.106;2024-01-06T09:27:43;12.37;;;9.10;;
4921;SDS011;16625;53.624;10.106;2024-01-06T09:30:10;15.63;;;8.10;;
4921;SDS011;16625;53.624;10.106;2024-01-06T09:32:39;15.73;;;9.93;;
4921;SDS011;16625;53.624;10.106;2024-01-06T09:35:06;10.57;;;7.10;;
4921;SDS011;16625;53.624;10.106;2024-01-06T09:37:33;12.77;;;8.00;;
4921;SDS011;16625;53.624;10.106;2024-01-06T09:40:00;11.90;;;7.37;;
4921;SDS011;16625;53.624;10.106;2024-01-06T09:42:27;11.00;;;7.27;;
4921;SDS011;16625;53.624;10.106;2024-01-06T09:44:54;15.33;;;8.00;;
4921;SDS011;16625;53.624;10.106;2024-01-06T09:47:22;10.30;;;7.03;;
4921;SDS011;16625;53.624;10.106;2024-01-06T09:53:01;13.70;;;7.00;;
4921;SDS011;16625;53.624;10.106;2024-01-06T09:55:34;12.57;;;8.40;;
4921;SDS011;16625;53.624;10.106;2024-01-06T09:58:02;14.63;;;7.27;;
4921;SDS011;16625;53.624;10.106;2024-01-06T10:00:30;13.37;;;8.00;;
4921;SDS011;16625;53.624;10.106;2024-01-06T10:02:58;13.70;;;8.47;;
4921;SDS011;16625;53.624;10.106;2024-01-06T10:05:27;13.43;;;7.00;;
4921;SDS011;16625;53.624;10.106;2024-01-06T10:07:55;14.87;;;7.43;;
4921;SDS011;16625;53.624;10.106;2024-01-06T10:10:24;14.30;;;8.57;;
4921;SDS011;16625;53.624;10.106;2024-01-06T10:13:06;14.67;;;7.70;;
4921;SDS011;16625;53.624;10.106;2024-01-06T10:18:59;11.73;;;6.80;;
4921;SDS011;16625;53.624;10.106;2024-01-06T10:21:28;9.90;;;7.50;;
4921;SDS011;16625;53.624;10.106;2024-01-06T10:23:56;10.50;;;6.70;;
4921;SDS011;16625;53.624;10.106;2024-01-06T10:26:24;20.27;;;8.33;;
4921;SDS011;16625;53.624;10.106;2024-01-06T10:28:56;13.07;;;7.10;;
4921;SDS011;16625;53.624;10.106;2024-01-06T10:31:25;15.20;;;7.70;;
4921;SDS011;16625;53.624;10.106;2024-01-06T10:33:52;15.73;;;7.10;;
4921;SDS011;16625;53.624;10.106;2024-01-06T10:36:20;14.83;;;7.10;;
4921;SDS011;16625;53.624;10.106;2024-01-06T10:38:50;12.23;;;6.20;;
4921;SDS011;16625;53.624;10.106;2024-01-06T10:41:18;11.17;;;7.30;;
4921;SDS011;16625;53.624;10.106;2024-01-06T10:43:46;10.53;;;6.70;;
4921;SDS011;16625;53.624;10.106;2024-01-06T10:46:14;13.97;;;7.23;;
4921;SDS011;16625;53.624;10.106;2024-01-06T10:48:41;17.63;;;5.80;;
4921;SDS011;16625;53.624;10.106;2024-01-06T10:51:10;11.80;;;7.23;;
4921;SDS011;16625;53.624;10.106;2024-01-06T10:53:38;24.63;;;6.50;;
4921;SDS011;16625;53.624;10.106;2024-01-06T10:56:08;12.90;;;7.27;;
4921;SDS011;16625;53.624;10.106;2024-01-06T10:58:36;10.77;;;6.50;;
4921;SDS011;16625;53.624;10.106;2024-01-06T11:01:07;13.53;;;6.40;;
4921;SDS011;16625;53.624;10.106;2024-01-06T11:03:35;11.70;;;6.60;;
4921;SDS011;16625;53.624;10.106;2024-01-06T11:06:04;12.00;;;7.93;;
4921;SDS011;16625;53.624;10.106;2024-01-06T11:08:33;9.20;;;6.10;;
4921;SDS011;16625;53.624;10.106;2024-01-06T11:11:03;11.77;;;5.20;;
4921;SDS011;16625;53.624;10.106;2024-01-06T11:13:32;8.20;;;5.27;;
4921;SDS011;16625;53.624;10.106;2024-01-06T11:16:00;11.17;;;6.30;;
4921;SDS011;16625;53.624;10.106;2024-01-06T11:18:34;11.10;;;5.47;;
4921;SDS011;16625;53.624;10.106;2024-01-06T11:26:45;6.80;;;4.50;;
4921;SDS011;16625;53.624;10.106;2024-01-06T11:29:17;11.03;;;6.37;;
4921;SDS011;16625;53.624;10.106;2024-01-06T11:34:50;10.37;;;5.60;;
4921;SDS011;16625;53.624;10.106;2024-01-06T11:37:19;4.53;;;3.37;;
4921;SDS011;16625;53.624;10.106;2024-01-06T11:39:50;10.30;;;6.53;;
4921;SDS011;16625;53.624;10.106;2024-01-06T11:42:18;7.50;;;4.47;;
4921;SDS011;16625;53.624;10.106;2024-01-06T11:44:49;11.13;;;5.07;;
4921;SDS011;16625;53.624;10.106;2024-01-06T11:47:16;8.17;;;5.60;;
4921;SDS011;16625;53.624;10.106;2024-01-06T11:49:48;9.20;;;6.10;;
4921;SDS011;16625;53.624;10.106;2024-01-06T11:52:24;5.07;;;4.57;;
4921;SDS011;16625;53.624;10.106;2024-01-06T11:54:52;8.60;;;5.80;;
4921;SDS011;16625;53.624;10.106;2024-01-06T11:57:20;9.20;;;5.63;;
4921;SDS011;16625;53.624;10.106;2024-01-06T11:59:48;10.30;;;5.40;;
4921;SDS011;16625;53.624;10.106;2024-01-06T12:02:17;6.87;;;4.17;;
4921;SDS011;16625;53.624;10.106;2024-01-06T12:04:47;12.73;;;5.70;;
4921;SDS011;16625;53.624;10.106;2024-01-06T12:07:16;8.90;;;5.80;;
4921;SDS011;16625;53.624;10.106;2024-01-06T12:09:43;11.13;;;5.70;;
4921;SDS011;16625;53.624;10.106;2024-01-06T12:12:10;4.63;;;4.20;;
4921;SDS011;16625;53.624;10.106;2024-01-06T12:14:39;10.00;;;4.60;;
4921;SDS011;16625;53.624;10.106;2024-01-06T12:17:09;8.27;;;4.87;;
4921;SDS011;16625;53.624;10.106;2024-01-06T12:19:38;8.30;;;4.43;;
4921;SDS011;16625;53.624;10.106;2024-01-06T12:22:06;7.50;;;4.53;;
4921;SDS011;16625;53.624;10.106;2024-01-06T12:24:33;7.00;;;4.97;;
4921;SDS011;16625;53.624;10.106;2024-01-06T12:27:02;4.60;;;3.87;;
4921;SDS011;16625;53.624;10.106;2024-01-06T12:29:30;6.27;;;5.07;;
4921;SDS011;16625;53.624;10.106;2024-01-06T12:31:58;8.07;;;6.03;;
4921;SDS011;16625;53.624;10.106;2024-01-06T12:34:27;8.60;;;5.40;;
4921;SDS011;16625;53.624;10.106;2024-01-06T12:36:54;7.50;;;3.90;;
4921;SDS011;16625;53.624;10.106;2024-01-06T12:39:21;9.13;;;5.43;;
4921;SDS011;16625;53.624;10.106;2024-01-06T12:41:50;5.07;;;3.50;;
4921;SDS011;16625;53.624;10.106;2024-01-06T12:44:17;5.20;;;4.70;;
4921;SDS011;16625;53.624;10.106;2024-01-06T12:46:44;5.57;;;4.30;;
4921;SDS011;16625;53.624;10.106;2024-01-06T12:49:12;8.10;;;4.40;;
4921;SDS011;16625;53.624;10.106;2024-01-06T12:51:42;6.97;;;4.50;;
4921;SDS011;16625;53.624;10.106;2024-01-06T12:54:09;6.17;;;4.70;;
4921;SDS011;16625;53.624;10.106;2024-01-06T12:56:36;7.43;;;5.67;;
4921;SDS011;16625;53.624;10.106;2024-01-06T12:59:03;6.80;;;4.57;;
4921;SDS011;16625;53.624;10.106;2024-01-06T13:01:31;5.53;;;4.47;;
4921;SDS011;16625;53.624;10.106;2024-01-06T13:03:58;4.63;;;3.90;;
4921;SDS011;16625;53.624;10.106;2024-01-06T13:06:25;8.27;;;4.90;;
4921;SDS011;16625;53.624;10.106;2024-01-06T13:08:54;5.57;;;3.43;;
4921;SDS011;16625;53.624;10.106;2024-01-06T13:11:21;20.47;;;4.80;;
4921;SDS011;16625;53.624;10.106;2024-01-06T13:13:48;5.47;;;3.60;;
4921;SDS011;16625;53.624;10.106;2024-01-06T13:16:15;5.17;;;4.17;;
4921;SDS011;16625;53.624;10.106;2024-01-06T13:18:42;10.20;;;3.67;;
4921;SDS011;16625;53.624;10.106;2024-01-06T13:21:09;10.17;;;4.67;;
4921;SDS011;16625;53.624;10.106;2024-01-06T13:23:36;5.83;;;3.97;;
4921;SDS011;16625;53.624;10.106;2024-01-06T13:26:05;5.23;;;4.20;;
4921;SDS011;16625;53.624;10.106;2024-01-06T13:28:33;9.53;;;4.80;;
4921;SDS011;16625;53.624;10.106;2024-01-06T13:31:00;5.17;;;4.37;;
4921;SDS011;16625;53.624;10.106;2024-01-06T13:33:27;4.10;;;3.70;;
4921;SDS011;16625;53.624;10.106;2024-01-06T13:35:55;5.53;;;3.90;;
4921;SDS011;16625;53.624;10.106;2024-01-06T13:38:22;3.87;;;3.10;;
4921;SDS011;16625;53.624;10.106;2024-01-06T13:40:51;4.60;;;4.00;;
4921;SDS011;16625;53.624;10.106;2024-01-06T13:43:20;7.70;;;4.60;;
4921;SDS011;16625;53.624;10.106;2024-01-06T13:45:47;4.53;;;3.47;;
4921;SDS011;16625;53.624;10.106;2024-01-06T13:48:14;3.20;;;2.77;;
4921;SDS011;16625;53.624;10.106;2024-01-06T13:50:43;6.63;;;3.70;;
4921;SDS011;16625;53.624;10.106;2024-01-06T13:53:11;5.40;;;3.37;;
4921;SDS011;16625;53.624;10.106;2024-01-06T13:55:38;4.57;;;3.50;;
4921;SDS011;16625;53.624;10.106;2024-01-06T13:58:06;10.77;;;3.93;;
4921;SDS011;16625;53.624;10.106;2024-01-06T14:00:35;8.20;;;4.10;;
4921;SDS011;16625;53.624;10.106;2024-01-06T14:03:03;6.00;;;4.77;;
4921;SDS011;16625;53.624;10.106;2024-01-06T14:05:31;5.30;;;4.17;;
4921;SDS011;16625;53.624;10.106;2024-01-06T14:07:59;10.20;;;4.47;;
4921;SDS011;16625;53.624;10.106;2024-01-06T14:10:27;13.80;;;4.60;;
4921;SDS011;16625;53.624;10.106;2024-01-06T14:12:54;5.23;;;3.60;;
4921;SDS011;16625;53.624;10.106;2024-01-06T14:15:21;5.90;;;4.50;;
4921;SDS011;16625;53.624;10.106;2024-01-06T14:17:50;8.57;;;4.20;;
4921;SDS011;16625;53.624;10.106;2024-01-06T14:20:17;5.37;;;4.30;;
4921;SDS011;16625;53.624;10.106;2024-01-06T14:22:44;5.37;;;4.07;;
4921;SDS011;16625;53.624;10.106;2024-01-06T14:25:11;5.77;;;4.23;;
4921;SDS011;16625;53.624;10.106;2024-01-06T14:27:38;6.63;;;5.27;;
4921;SDS011;16625;53.624;10.106;2024-01-06T14:30:06;8.00;;;4.53;;
4921;SDS011;16625;53.624;10.106;2024-01-06T14:32:34;4.10;;;3.70;;
4921;SDS011;16625;53.624;10.106;2024-01-06T14:35:03;6.70;;;5.30;;
4921;SDS011;16625;53.624;10.106;2024-01-06T14:37:32;6.37;;;4.27;;
4921;SDS011;16625;53.624;10.106;2024-01-06T14:39:59;7.40;;;4.63;;
4921;SDS011;16625;53.624;10.106;2024-01-06T14:42:30;11.33;;;4.57;;
4921;SDS011;16625;53.624;10.106;2024-01-06T14:45:01;5.63;;;4.60;;
4921;SDS011;16625;53.624;10.106;2024-01-06T14:47:28;11.47;;;6.00;;
4921;SDS011;16625;53.624;10.106;2024-01-06T14:49:54;6.00;;;4.67;;
4921;SDS011;16625;53.624;10.106;2024-01-06T14:52:23;4.27;;;3.77;;
4921;SDS011;16625;53.624;10.106;2024-01-06T14:54:50;6.40;;;4.37;;
4921;SDS011;16625;53.624;10.106;2024-01-06T14:57:17;10.83;;;4.20;;